Time;durP1;ratioP1;P1;durP2;ratioP2;P2;SDS_P1;SDS_P2;PMS_P1;PMS_P2;Temp;Humidity;BMP_temperature;BMP_pressure;BME280_temperature;BME280_humidity;BME280_pressure;Samples;Min_cycle;Max_cycle;Signal;HPM_P1;HPM_P2
2022/06/10 00:00:14;;;;;;;0.25;0.10;;;;;;;15.65;100.00;94181.88;4978196;28;20322;-91
2022/06/10 00:02:43;;;;;;;5.47;0.28;;;;;;;15.54;100.00;94181.34;4962064;28;20038;-92
2022/06/10 00:05:13;;;;;;;0.28;0.20;;;;;;;15.55;100.00;94174.97;4979317;28;20420;-92
2022/06/10 00:07:39;;;;;;;0.50;0.20;;;;;;;15.43;100.00;94182.69;4979337;28;20030;-91
2022/06/10 00:10:05;;;;;;;3.53;0.30;;;;;;;15.51;100.00;94186.47;4962135;28;20035;-91
2022/06/10 00:12:30;;;;;;;0.20;0.20;;;;;;;15.22;100.00;94187.69;4946491;28;20325;-92
2022/06/10 00:14:56;;;;;;;1.08;0.30;;;;;;;15.32;100.00;94184.78;4962107;28;20089;-92
2022/06/10 00:17:21;;;;;;;1.75;0.20;;;;;;;15.32;100.00;94179.50;4979095;28;20106;-92
2022/06/10 00:19:46;;;;;;;0.22;0.10;;;;;;;15.38;100.00;94186.22;4977994;28;20141;-92
2022/06/10 00:22:12;;;;;;;4.15;0.30;;;;;;;15.49;100.00;94192.03;4978282;28;20081;-91
2022/06/10 00:24:38;;;;;;;0.85;0.30;;;;;;;15.41;100.00;94184.81;4977883;28;20457;-93
2022/06/10 00:27:04;;;;;;;1.38;0.20;;;;;;;15.48;100.00;94194.97;4978252;28;20027;-91
2022/06/10 00:29:31;;;;;;;0.70;0.15;;;;;;;15.49;100.00;94194.66;4977634;28;20031;-92
2022/06/10 00:31:57;;;;;;;0.30;0.10;;;;;;;15.39;100.00;94190.44;4977729;28;20433;-93
2022/06/10 00:34:22;;;;;;;1.02;0.10;;;;;;;15.53;100.00;94195.63;4979004;28;20041;-92
2022/06/10 00:36:48;;;;;;;1.20;0.20;;;;;;;15.49;100.00;94186.75;4977593;28;20042;-92
2022/06/10 00:39:13;;;;;;;3.22;0.20;;;;;;;15.45;100.00;94188.44;4978445;28;20031;-93
2022/06/10 00:41:43;;;;;;;1.20;0.20;;;;;;;15.45;100.00;94188.44;4961440;28;20035;-92
2022/06/10 00:44:31;;;;;;;3.78;0.30;;;;;;;15.49;100.00;94181.47;4977388;28;20043;-91
2022/06/10 00:46:57;;;;;;;3.08;0.20;;;;;;;15.51;100.00;94183.81;4978647;28;20114;-92
2022/06/10 00:49:22;;;;;;;2.60;0.30;;;;;;;15.16;100.00;94187.03;4977210;28;20045;-92
2022/06/10 00:51:56;;;;;;;1.35;0.20;;;;;;;15.06;100.00;94180.13;4976413;28;20047;-91
2022/06/10 00:54:39;;;;;;;2.00;0.30;;;;;;;15.21;100.00;94189.53;4964696;28;20030;-91
2022/06/10 00:57:14;;;;;;;1.70;0.57;;;;;;;15.11;100.00;94181.84;4996406;28;20463;-91
2022/06/10 00:59:44;;;;;;;1.98;0.20;;;;;;;15.03;100.00;94182.59;4988034;28;20134;-91
2022/06/10 01:02:12;;;;;;;0.38;0.10;;;;;;;15.12;100.00;94173.66;4977065;28;20062;-91
2022/06/10 01:04:40;;;;;;;1.52;0.20;;;;;;;15.00;100.00;94170.75;4973751;28;20149;-90
2022/06/10 01:07:07;;;;;;;0.52;0.35;;;;;;;15.16;100.00;94180.97;4979407;28;20459;-91
2022/06/10 01:09:34;;;;;;;1.98;0.13;;;;;;;15.16;100.00;94173.84;4960709;28;20092;-92
2022/06/10 01:12:02;;;;;;;0.20;0.20;;;;;;;15.24;100.00;94185.53;4976947;28;20039;-91
2022/06/10 01:14:46;;;;;;;2.15;0.32;;;;;;;15.04;100.00;94176.22;4978284;28;20039;-90
2022/06/10 01:17:21;;;;;;;2.00;0.30;;;;;;;15.19;100.00;94181.13;4977131;28;20042;-91
2022/06/10 01:19:50;;;;;;;6.82;0.30;;;;;;;15.17;100.00;94178.03;4976817;28;20033;-91
2022/06/10 01:22:36;;;;;;;3.03;0.30;;;;;;;15.01;100.00;94187.38;4978000;28;20042;-92
2022/06/10 01:25:26;;;;;;;1.95;0.20;;;;;;;15.11;100.00;94182.66;4977993;28;20030;-93
2022/06/10 01:28:18;;;;;;;0.30;0.20;;;;;;;15.00;100.00;94178.69;4978311;28;20074;-92
2022/06/10 01:31:26;;;;;;;2.03;0.57;;;;;;;15.04;100.00;94190.19;4976758;28;20054;-93
2022/06/10 01:34:18;;;;;;;2.20;0.30;;;;;;;14.87;100.00;94200.59;4974842;28;20058;-92
2022/06/10 01:37:04;;;;;;;0.38;0.20;;;;;;;14.84;100.00;94205.41;4976777;28;20035;-92
2022/06/10 01:39:47;;;;;;;4.13;0.38;;;;;;;14.79;100.00;94196.81;4976533;28;20078;-91
2022/06/10 01:42:30;;;;;;;;;;;;;;;14.66;100.00;94207.06;4978348;28;20042;-91
2022/06/10 01:45:03;;;;;;;2.33;0.20;;;;;;;14.52;100.00;94199.22;4960888;28;20020;-91
2022/06/10 01:47:35;;;;;;;1.58;0.30;;;;;;;14.62;100.00;94214.03;4960738;28;20043;-92
2022/06/10 01:50:13;;;;;;;0.65;0.30;;;;;;;14.45;100.00;94211.22;4976777;28;20034;-92
2022/06/10 01:52:45;;;;;;;1.00;0.32;;;;;;;14.53;100.00;94211.31;4961055;28;20031;-92
2022/06/10 01:55:29;;;;;;;5.77;0.40;;;;;;;14.45;100.00;94209.34;4960684;28;20047;-92
2022/06/10 01:57:58;;;;;;;0.47;0.40;;;;;;;14.26;100.00;94206.84;4976523;28;20125;-92
2022/06/10 02:00:27;;;;;;;1.55;0.50;;;;;;;14.42;100.00;94209.97;4977772;28;20348;-92
2022/06/10 02:02:59;;;;;;;0.52;0.40;;;;;;;14.51;100.00;94216.09;4978648;28;20037;-93
2022/06/10 02:05:27;;;;;;;2.28;0.40;;;;;;;14.50;100.00;94213.75;4980481;28;20022;-91
2022/06/10 02:08:02;;;;;;;2.25;0.55;;;;;;;14.36;100.00;94219.06;4964522;28;20031;-93
2022/06/10 02:10:32;;;;;;;0.35;0.32;;;;;;;14.33;100.00;94216.97;4964507;28;20460;-92
2022/06/10 02:13:06;;;;;;;0.77;0.32;;;;;;;14.31;100.00;94221.78;4980286;28;20360;-92
2022/06/10 02:15:36;;;;;;;6.50;0.30;;;;;;;14.31;100.00;94219.94;4980514;28;20458;-92
2022/06/10 02:18:15;;;;;;;4.57;0.30;;;;;;;14.24;100.00;94215.06;4980151;28;20027;-92
2022/06/10 02:20:50;;;;;;;0.90;0.30;;;;;;;14.19;100.00;94217.00;4964075;28;20034;-92
2022/06/10 02:23:23;;;;;;;0.32;0.20;;;;;;;14.06;100.00;94226.44;4964413;28;20093;-92
2022/06/10 02:25:55;;;;;;;1.73;0.40;;;;;;;13.89;100.00;94227.81;4964122;28;20042;-92
2022/06/10 02:28:26;;;;;;;4.32;0.65;;;;;;;13.77;100.00;94232.75;4979885;28;20015;-91
2022/06/10 02:30:58;;;;;;;2.65;0.30;;;;;;;13.67;100.00;94229.25;4980187;28;20062;-92
2022/06/10 02:33:23;;;;;;;1.70;0.30;;;;;;;13.34;100.00;94237.13;4979751;28;20035;-92
2022/06/10 02:35:56;;;;;;;1.15;0.60;;;;;;;13.48;100.00;94239.03;4963945;28;20037;-92
2022/06/10 02:38:45;;;;;;;4.77;0.50;;;;;;;13.45;100.00;94232.53;4963997;28;20059;-92
2022/06/10 02:41:29;;;;;;;3.63;0.63;;;;;;;13.43;100.00;94235.44;4975668;28;20113;-91
2022/06/10 02:44:19;;;;;;;1.63;0.52;;;;;;;13.34;100.00;94242.41;4979738;28;20027;-91
2022/06/10 02:47:00;;;;;;;2.10;0.43;;;;;;;13.49;100.00;94232.72;4979662;28;20037;-92
2022/06/10 02:49:26;;;;;;;1.33;0.35;;;;;;;13.57;100.00;94242.59;4979779;28;20037;-91
2022/06/10 02:51:52;;;;;;;2.72;0.50;;;;;;;13.60;100.00;94243.88;4963595;28;20085;-91
2022/06/10 02:54:23;;;;;;;1.55;0.47;;;;;;;13.90;100.00;94244.41;4979389;28;20034;-91
2022/06/10 02:56:49;;;;;;;1.77;0.45;;;;;;;13.71;100.00;94253.16;4979502;28;20038;-90
2022/06/10 03:02:12;;;;;;;3.08;0.43;;;;;;;13.89;100.00;94248.13;4979665;28;20356;-92
2022/06/10 03:04:59;;;;;;;1.73;0.73;;;;;;;13.95;100.00;94253.00;4980426;28;20025;-91
2022/06/10 03:07:36;;;;;;;2.83;0.63;;;;;;;13.99;100.00;94240.81;4980452;28;20038;-90
2022/06/10 03:10:32;;;;;;;2.45;0.30;;;;;;;14.06;100.00;94248.31;4979238;28;20033;-92
2022/06/10 03:13:10;;;;;;;3.70;0.40;;;;;;;14.05;100.00;94253.88;4980083;28;20038;-91
2022/06/10 03:16:00;;;;;;;1.13;0.43;;;;;;;14.16;100.00;94254.47;4978760;28;20031;-91
2022/06/10 03:18:29;;;;;;;3.90;0.40;;;;;;;14.25;100.00;94257.97;4979083;28;20031;-90
2022/06/10 03:21:20;;;;;;;4.30;0.30;;;;;;;14.26;100.00;94257.69;4962953;28;20039;-93
2022/06/10 03:23:58;;;;;;;0.30;0.28;;;;;;;14.27;100.00;94266.38;4949511;28;20042;-89
2022/06/10 03:26:31;;;;;;;0.30;0.30;;;;;;;14.49;100.00;94264.91;4979298;28;20034;-91
2022/06/10 03:29:14;;;;;;;2.33;0.32;;;;;;;14.54;100.00;94276.13;4978997;28;20491;-91
2022/06/10 03:31:45;;;;;;;;;;;;;;;14.59;100.00;94272.63;4979422;28;20395;-92
2022/06/10 03:34:32;;;;;;;2.13;0.40;;;;;;;14.56;100.00;94275.81;4978767;28;20378;-92
2022/06/10 03:37:00;;;;;;;1.50;0.30;;;;;;;14.61;100.00;94282.88;4962922;28;20041;-91
2022/06/10 03:39:26;;;;;;;1.75;0.40;;;;;;;14.59;100.00;94277.91;4955486;28;20030;-92
2022/06/10 03:41:57;;;;;;;2.05;0.35;;;;;;;14.74;100.00;94283.97;4978886;28;20428;-92
2022/06/10 03:44:23;;;;;;;0.20;0.20;;;;;;;14.72;100.00;94286.88;4962493;28;20125;-92
2022/06/10 03:46:50;;;;;;;7.75;0.80;;;;;;;14.68;100.00;94285.91;4978649;28;20429;-92
2022/06/10 03:49:18;;;;;;;3.67;0.40;;;;;;;14.45;100.00;94288.44;4978250;28;20030;-92
2022/06/10 03:51:44;;;;;;;2.10;0.40;;;;;;;14.35;100.00;94294.69;4978439;28;20031;-91
2022/06/10 03:54:15;;;;;;;3.70;0.38;;;;;;;14.42;100.00;94292.47;4962407;28;20325;-91
2022/06/10 03:56:41;;;;;;;1.63;0.63;;;;;;;14.44;100.00;94302.69;4963350;28;20105;-91
2022/06/10 03:59:06;;;;;;;3.97;0.60;;;;;;;14.50;100.00;94298.09;4978078;28;20035;-91
2022/06/10 04:01:31;;;;;;;0.65;0.40;;;;;;;14.53;100.00;94290.41;4978128;28;20046;-91
2022/06/10 04:03:58;;;;;;;0.73;0.35;;;;;;;14.48;100.00;94295.75;4978142;28;20326;-91
2022/06/10 04:06:24;;;;;;;1.73;0.45;;;;;;;14.32;100.00;94294.47;4979313;28;20058;-91
2022/06/10 04:08:49;;;;;;;1.90;0.50;;;;;;;14.39;100.00;94294.88;4979120;28;20035;-91
2022/06/10 04:11:15;;;;;;;4.85;0.50;;;;;;;14.30;100.00;94299.28;4961844;28;20338;-92
2022/06/10 04:13:44;;;;;;;1.48;0.30;;;;;;;14.22;100.00;94290.19;4977868;28;20039;-91
2022/06/10 04:16:15;;;;;;;1.38;0.40;;;;;;;14.30;100.00;94309.81;4979072;28;20042;-92
2022/06/10 04:19:07;;;;;;;1.10;0.47;;;;;;;14.25;100.00;94305.41;4977823;28;20113;-89
2022/06/10 04:21:33;;;;;;;1.60;0.40;;;;;;;14.21;100.00;94309.72;4962273;28;20343;-91
2022/06/10 04:23:58;;;;;;;0.82;0.30;;;;;;;14.25;100.00;94319.38;4978066;28;20047;-92
2022/06/10 04:26:24;;;;;;;1.05;0.60;;;;;;;14.33;100.00;94311.84;4979058;28;20125;-92
2022/06/10 04:28:50;;;;;;;2.42;0.60;;;;;;;14.33;100.00;94317.13;4977659;28;20105;-92
2022/06/10 04:31:15;;;;;;;0.65;0.40;;;;;;;14.21;100.00;94315.78;4962088;28;20038;-93
2022/06/10 04:33:41;;;;;;;4.13;0.50;;;;;;;14.30;100.00;94318.50;4978889;28;20069;-95
2022/06/10 04:36:07;;;;;;;0.95;0.52;;;;;;;14.57;100.00;94324.88;4962271;28;20405;-95
2022/06/10 04:38:33;;;;;;;1.00;0.40;;;;;;;14.55;100.00;94327.00;4963081;28;20113;-94
2022/06/10 04:40:58;;;;;;;1.75;0.40;;;;;;;14.81;100.00;94323.91;4978260;28;20038;-94
2022/06/10 04:43:24;;;;;;;0.63;0.40;;;;;;;15.05;100.00;94321.03;4962300;28;20097;-96
2022/06/10 04:45:52;;;;;;;0.90;0.45;;;;;;;15.10;100.00;94328.84;4979636;28;20037;-94
2022/06/10 04:48:18;;;;;;;1.83;0.50;;;;;;;15.06;100.00;94329.72;4978459;28;20433;-94
2022/06/10 04:50:45;;;;;;;2.90;0.47;;;;;;;15.09;100.00;94332.56;4978128;28;20173;-94
2022/06/10 04:53:11;;;;;;;0.65;0.40;;;;;;;14.91;100.00;94330.81;4978709;28;20023;-94
2022/06/10 04:55:37;;;;;;;0.60;0.30;;;;;;;15.31;100.00;94331.03;4978690;28;20428;-94
2022/06/10 04:58:03;;;;;;;0.90;0.30;;;;;;;15.16;100.00;94340.06;4979773;28;20026;-94
2022/06/10 05:00:32;;;;;;;4.80;0.60;;;;;;;15.41;100.00;94337.94;4978058;28;20034;-94
2022/06/10 05:02:58;;;;;;;4.25;0.50;;;;;;;15.30;100.00;94334.75;4977769;28;20027;-95
2022/06/10 05:05:25;;;;;;;2.13;0.50;;;;;;;15.12;100.00;94339.09;4977952;28;20126;-95
2022/06/10 05:11:14;;;;;;;1.33;0.60;;;;;;;14.61;100.00;94343.50;4978665;28;20103;-93
2022/06/10 05:13:39;;;;;;;3.28;0.40;;;;;;;14.90;100.00;94348.50;4978944;28;20023;-94
2022/06/10 05:16:05;;;;;;;6.68;0.50;;;;;;;15.10;100.00;94351.81;4962664;28;20042;-94
2022/06/10 05:18:31;;;;;;;2.47;0.40;;;;;;;15.20;100.00;94356.06;4977523;28;20472;-94
2022/06/10 05:20:57;;;;;;;1.05;0.50;;;;;;;15.08;100.00;94349.47;4961202;28;20038;-93
2022/06/10 05:23:24;;;;;;;0.80;0.50;;;;;;;15.10;100.00;94354.44;4981276;28;20454;-90
2022/06/10 05:25:50;;;;;;;3.22;0.60;;;;;;;15.04;100.00;94351.13;4984321;28;20044;-90
2022/06/10 05:28:16;;;;;;;2.53;0.45;;;;;;;14.91;100.00;94362.47;4996116;28;20356;-91
2022/06/10 05:30:42;;;;;;;2.53;0.75;;;;;;;14.91;100.00;94368.53;4996234;28;20030;-93
2022/06/10 05:33:09;;;;;;;4.55;0.50;;;;;;;14.80;100.00;94373.25;4979924;28;20033;-92
2022/06/10 05:35:36;;;;;;;3.10;0.50;;;;;;;14.99;100.00;94374.97;4996083;28;20030;-90
2022/06/10 05:38:02;;;;;;;1.30;0.60;;;;;;;15.31;100.00;94373.25;4995538;28;20559;-93
2022/06/10 05:40:29;;;;;;;1.10;0.50;;;;;;;15.85;100.00;94377.91;4996062;28;20034;-93
2022/06/10 05:42:54;;;;;;;0.82;0.50;;;;;;;15.93;100.00;94376.44;4996074;28;20041;-91
2022/06/10 05:45:21;;;;;;;0.32;0.32;;;;;;;16.38;100.00;94388.84;4995994;28;20031;-92
2022/06/10 05:47:49;;;;;;;1.52;0.63;;;;;;;16.45;100.00;94386.53;4996222;28;20436;-90
2022/06/10 05:50:18;;;;;;;3.63;0.60;;;;;;;16.33;100.00;94386.28;4995839;28;20054;-91
2022/06/10 05:52:44;;;;;;;0.47;0.30;;;;;;;16.75;100.00;94397.38;4995986;28;20026;-91
2022/06/10 05:55:10;;;;;;;0.50;0.40;;;;;;;16.66;100.00;94389.41;4991121;28;20474;-92
2022/06/10 05:57:36;;;;;;;4.75;0.40;;;;;;;16.86;100.00;94397.13;4960667;28;20027;-92
2022/06/10 06:00:09;;;;;;;3.22;0.50;;;;;;;16.98;100.00;94404.47;4960560;28;20031;-92
2022/06/10 06:02:34;;;;;;;1.30;0.30;;;;;;;17.25;100.00;94400.84;4976491;28;20030;-93
2022/06/10 06:05:00;;;;;;;0.82;0.50;;;;;;;17.85;100.00;94405.72;4976239;28;20027;-91
2022/06/10 06:07:45;;;;;;;1.70;0.40;;;;;;;17.71;100.00;94404.00;4960494;28;20746;-92
2022/06/10 06:10:13;;;;;;;1.63;0.50;;;;;;;18.18;100.00;94411.31;4960143;28;20404;-92
2022/06/10 06:12:39;;;;;;;4.88;0.43;;;;;;;17.66;100.00;94404.94;4960237;28;20448;-92
2022/06/10 06:15:07;;;;;;;3.22;0.50;;;;;;;17.20;100.00;94404.41;4976306;28;20034;-92
2022/06/10 06:17:33;;;;;;;1.88;0.73;;;;;;;17.13;100.00;94408.59;4977825;28;20329;-92
2022/06/10 06:19:59;;;;;;;0.63;0.43;;;;;;;17.40;100.00;94412.09;4977445;28;20038;-92
2022/06/10 06:22:25;;;;;;;2.63;0.88;;;;;;;16.85;100.00;94416.72;4977514;28;20078;-90
2022/06/10 06:24:50;;;;;;;1.70;0.47;;;;;;;16.84;100.00;94428.41;4976146;28;20101;-91
2022/06/10 06:27:16;;;;;;;1.13;0.55;;;;;;;16.93;100.00;94418.63;4976260;28;20030;-92
2022/06/10 06:29:43;;;;;;;1.42;0.40;;;;;;;17.00;100.00;94424.28;4960308;28;20373;-91
2022/06/10 06:32:09;;;;;;;0.80;0.50;;;;;;;17.35;100.00;94427.00;4976283;28;20113;-91
2022/06/10 06:34:35;;;;;;;3.13;0.70;;;;;;;17.02;100.00;94432.69;4944213;28;20054;-92
2022/06/10 06:37:00;;;;;;;1.92;0.50;;;;;;;17.03;100.00;94431.59;4976104;28;20031;-91
2022/06/10 06:39:26;;;;;;;1.75;0.70;;;;;;;16.92;100.00;94425.78;4975949;28;20467;-91
2022/06/10 06:41:54;;;;;;;1.33;0.70;;;;;;;16.77;100.00;94442.81;4976127;28;20081;-91
2022/06/10 06:44:19;;;;;;;3.30;0.70;;;;;;;16.82;100.00;94445.34;4977421;28;20034;-91
2022/06/10 06:46:45;;;;;;;2.40;0.75;;;;;;;17.22;100.00;94441.94;4960138;28;20130;-92
2022/06/10 06:49:18;;;;;;;3.33;0.70;;;;;;;16.98;100.00;94444.16;4976941;28;20388;-91
2022/06/10 06:51:44;;;;;;;1.95;0.60;;;;;;;17.15;100.00;94451.41;4979585;28;20433;-92
2022/06/10 06:54:10;;;;;;;0.70;0.55;;;;;;;17.13;100.00;94443.78;4963616;28;20019;-92
2022/06/10 06:56:36;;;;;;;1.70;0.50;;;;;;;17.30;98.78;94455.53;4963483;28;20062;-91
2022/06/10 06:59:03;;;;;;;2.13;0.70;;;;;;;17.04;100.00;94461.50;4963355;28;20026;-91
2022/06/10 07:01:29;;;;;;;3.10;0.73;;;;;;;17.74;100.00;94460.88;4963085;28;20031;-92
2022/06/10 07:03:54;;;;;;;3.97;0.60;;;;;;;17.77;100.00;94461.06;4979550;28;20449;-92
2022/06/10 07:06:19;;;;;;;3.00;0.60;;;;;;;18.34;93.45;94461.22;4947617;28;20038;-91
2022/06/10 07:08:45;;;;;;;1.65;0.50;;;;;;;18.26;94.56;94464.69;4963066;28;20181;-93
2022/06/10 07:11:10;;;;;;;2.35;0.77;;;;;;;17.66;93.31;94460.59;4979359;28;20026;-92
2022/06/10 07:13:38;;;;;;;9.00;1.45;;;;;;;17.78;92.89;94472.41;4979381;28;20027;-91
2022/06/10 07:16:07;;;;;;;42.72;7.00;;;;;;;17.85;88.43;94477.25;4979265;28;20030;-92
2022/06/10 07:18:33;;;;;;;3.83;1.17;;;;;;;17.84;86.41;94479.16;4963475;28;20034;-91
2022/06/10 07:20:59;;;;;;;2.50;0.60;;;;;;;17.70;88.56;94484.56;4978935;28;20046;-92
2022/06/10 07:23:26;;;;;;;4.03;0.80;;;;;;;18.22;81.57;94491.03;4979117;28;20026;-92
2022/06/10 07:25:52;;;;;;;3.65;0.50;;;;;;;18.71;91.99;94490.03;4962719;28;20027;-93
2022/06/10 07:28:17;;;;;;;2.95;0.88;;;;;;;18.81;83.44;94488.94;4962945;28;20404;-92
2022/06/10 07:30:44;;;;;;;11.20;2.55;;;;;;;19.56;88.45;94499.13;4979959;28;20023;-91
2022/06/10 07:33:10;;;;;;;6.03;0.70;;;;;;;19.56;77.21;94499.13;4978746;28;20088;-93
2022/06/10 07:35:36;;;;;;;1.52;0.63;;;;;;;19.99;75.66;94493.88;4962910;28;20023;-93
2022/06/10 07:38:03;;;;;;;4.53;1.15;;;;;;;19.86;78.26;94498.31;4978597;28;20027;-93
2022/06/10 07:43:13;;;;;;;44.78;7.88;;;;;;;19.18;100.00;94505.22;4979877;28;20129;-93
2022/06/10 07:45:39;;;;;;;5.10;1.20;;;;;;;19.29;100.00;94513.63;4979622;28;20121;-93
2022/06/10 07:48:05;;;;;;;7.32;2.03;;;;;;;19.46;100.00;94515.44;4978395;28;20030;-93
2022/06/10 07:50:31;;;;;;;6.38;1.08;;;;;;;20.26;89.23;94511.19;4978554;28;20033;-93
2022/06/10 07:52:56;;;;;;;7.05;1.67;;;;;;;20.33;91.01;94513.34;4978522;28;20117;-92
2022/06/10 07:55:22;;;;;;;2.75;0.50;;;;;;;19.87;97.11;94515.81;4978750;28;20034;-92
2022/06/10 07:57:48;;;;;;;6.82;0.75;;;;;;;19.66;95.65;94526.44;4979494;28;20041;-93
2022/06/10 08:00:14;;;;;;;1.88;0.57;;;;;;;20.17;87.51;94521.91;4961700;28;20034;-93
2022/06/10 08:02:40;;;;;;;2.20;0.57;;;;;;;19.77;97.30;94527.59;4979479;28;20094;-92
2022/06/10 08:05:08;;;;;;;24.77;4.00;;;;;;;20.54;89.28;94529.28;4978099;28;20034;-92
2022/06/10 08:07:33;;;;;;;11.00;1.58;;;;;;;20.72;95.45;94527.25;4978187;28;20027;-91
2022/06/10 08:09:59;;;;;;;2.35;0.50;;;;;;;20.54;90.48;94536.50;4979320;28;20085;-92
2022/06/10 08:12:24;;;;;;;50.90;8.65;;;;;;;20.47;78.81;94529.81;4978132;28;20031;-92
2022/06/10 08:14:52;;;;;;;2.53;0.65;;;;;;;20.30;77.79;94540.59;4961948;28;20351;-93
2022/06/10 08:17:18;;;;;;;3.58;0.60;;;;;;;20.11;74.29;94541.84;4979194;28;20126;-92
2022/06/10 08:19:44;;;;;;;4.43;0.85;;;;;;;20.67;87.10;94538.09;4978144;28;20061;-92
2022/06/10 08:22:55;;;;;;;3.70;0.95;;;;;;;20.98;71.69;94544.09;4977840;28;20030;-92
2022/06/10 08:24:55;;;;;;;4.60;0.47;;;;;;;20.94;64.30;94551.19;4971874;28;20031;-90
2022/06/10 08:30:43;;;;;;;2.80;0.88;;;;;;;21.07;62.72;94557.31;4978951;28;20029;-92
2022/06/10 08:33:09;;;;;;;16.40;3.72;;;;;;;20.87;87.29;94555.16;4977655;28;20035;-93
2022/06/10 08:35:36;;;;;;;1.85;0.47;;;;;;;20.05;84.11;94562.50;4961916;28;20516;-93
2022/06/10 08:38:02;;;;;;;3.13;0.82;;;;;;;19.96;90.24;94571.66;4979105;28;20045;-93
2022/06/10 08:40:35;;;;;;;1.20;0.50;;;;;;;21.08;83.03;94558.88;4977612;28;20030;-93
2022/06/10 08:43:11;;;;;;;3.53;0.55;;;;;;;20.51;77.62;94577.84;4979059;28;20027;-94
2022/06/10 08:45:51;;;;;;;3.97;0.55;;;;;;;19.91;76.46;94573.34;4977928;28;20023;-92
2022/06/10 08:48:51;;;;;;;28.60;5.63;;;;;;;21.39;73.64;94570.94;4977371;28;20039;-93
2022/06/10 08:51:25;;;;;;;6.15;0.47;;;;;;;21.45;69.75;94577.59;4977533;28;20019;-93
2022/06/10 08:54:17;;;;;;;27.65;5.13;;;;;;;20.25;98.72;94583.38;4977689;28;20025;-93
2022/06/10 08:56:49;;;;;;;97.32;17.90;;;;;;;21.63;86.63;94580.03;4978449;28;20046;-93
2022/06/10 08:59:17;;;;;;;94.65;18.73;;;;;;;22.06;95.14;94588.63;4978425;28;20022;-93
2022/06/10 09:02:15;;;;;;;11.15;1.77;;;;;;;21.11;100.00;94580.31;4978386;28;20026;-93
2022/06/10 09:04:52;;;;;;;6.00;1.10;;;;;;;22.14;100.00;94583.16;4977794;28;20054;-92
2022/06/10 09:07:32;;;;;;;2.42;0.43;;;;;;;22.38;94.08;94584.25;4978621;28;20067;-93
2022/06/10 09:09:59;;;;;;;8.30;1.98;;;;;;;20.92;100.00;94582.69;4978324;28;20037;-93
2022/06/10 09:12:59;;;;;;;6.03;1.00;;;;;;;21.38;100.00;94596.03;4976510;28;20031;-92
2022/06/10 09:15:27;;;;;;;7.25;1.17;;;;;;;20.29;100.00;94590.34;4977337;28;20038;-93
2022/06/10 09:18:04;;;;;;;4.10;0.60;;;;;;;21.06;100.00;94593.84;4977222;28;20047;-93
2022/06/10 09:20:41;;;;;;;4.78;0.68;;;;;;;21.21;97.47;94589.75;4977165;28;20129;-93
2022/06/10 09:23:23;;;;;;;5.00;1.30;;;;;;;21.05;98.09;94593.03;4976883;28;20440;-93
2022/06/10 09:25:49;;;;;;;7.20;1.10;;;;;;;21.32;100.00;94601.56;4961373;28;20133;-93
2022/06/10 09:28:15;;;;;;;17.70;3.22;;;;;;;21.99;84.09;94600.63;4976854;28;20419;-93
2022/06/10 09:30:59;;;;;;;10.77;0.90;;;;;;;22.63;76.26;94616.22;4976844;28;20113;-93
2022/06/10 09:33:46;;;;;;;26.45;4.18;;;;;;;22.29;87.93;94613.72;4976817;28;20035;-91
2022/06/10 09:36:17;;;;;;;22.70;4.13;;;;;;;23.43;74.70;94626.41;4977866;28;20031;-94
2022/06/10 09:38:48;;;;;;;1.23;0.60;;;;;;;22.76;75.61;94622.31;4977935;28;20404;-93
2022/06/10 09:41:41;;;;;;;5.65;0.70;;;;;;;22.60;73.69;94616.91;4978160;28;20039;-92
2022/06/10 09:44:16;;;;;;;4.70;0.60;;;;;;;22.84;74.93;94609.94;4977401;28;20050;-92
2022/06/10 09:47:14;;;;;;;3.45;0.70;;;;;;;23.97;68.09;94613.53;4977951;28;20089;-93
2022/06/10 09:50:02;;;;;;;0.77;0.45;;;;;;;24.45;60.38;94621.47;4965728;28;20471;-92
2022/06/10 09:52:32;;;;;;;7.03;0.52;;;;;;;25.17;61.45;94632.88;4976730;28;20027;-92
2022/06/10 09:55:12;;;;;;;21.17;2.00;;;;;;;25.75;58.37;94628.56;4960733;28;20539;-93
2022/06/10 10:01:02;;;;;;;1.05;0.45;;;;;;;25.35;58.54;94633.22;4977735;28;20540;-92
2022/06/10 10:03:45;;;;;;;15.00;1.60;;;;;;;24.49;60.54;94629.59;4977631;28;20093;-93
2022/06/10 10:06:49;;;;;;;29.40;6.03;;;;;;;25.54;56.57;94635.13;4976533;28;20030;-93
2022/06/10 10:09:33;;;;;;;3.90;0.53;;;;;;;25.01;55.38;94634.88;4959741;28;20153;-92
2022/06/10 10:12:13;;;;;;;1.10;0.50;;;;;;;23.76;56.10;94627.94;4977626;28;20118;-93
2022/06/10 10:14:46;;;;;;;0.52;0.30;;;;;;;24.50;55.64;94636.50;4960590;28;20335;-94
2022/06/10 10:17:28;;;;;;;0.98;0.40;;;;;;;25.55;50.51;94625.16;4960883;28;20038;-93
2022/06/10 10:20:03;;;;;;;1.58;0.45;;;;;;;24.42;57.08;94628.34;4977552;28;20035;-92
2022/06/10 10:22:38;;;;;;;4.75;0.60;;;;;;;24.97;52.68;94629.44;4976227;28;20041;-92
2022/06/10 10:25:05;;;;;;;6.32;0.68;;;;;;;24.57;56.45;94634.00;4980188;28;20053;-92
2022/06/10 10:27:33;;;;;;;1.10;0.40;;;;;;;24.52;51.85;94632.34;4980510;28;20027;-92
2022/06/10 10:30:16;;;;;;;0.70;0.40;;;;;;;24.41;52.73;94626.78;4981014;28;20026;-93
2022/06/10 10:32:54;;;;;;;1.40;0.55;;;;;;;25.78;46.80;94622.47;4964091;28;20031;-92
2022/06/10 10:35:29;;;;;;;3.08;0.60;;;;;;;26.20;48.89;94617.34;4979868;28;20019;-92
2022/06/10 10:38:08;;;;;;;3.08;0.55;;;;;;;25.65;49.05;94621.88;4963006;28;20125;-93
2022/06/10 10:40:45;;;;;;;1.27;0.47;;;;;;;27.06;45.97;94616.91;4963832;28;20085;-92
2022/06/10 10:43:31;;;;;;;0.85;0.40;;;;;;;27.13;43.96;94624.28;4963496;28;20033;-92
2022/06/10 10:46:02;;;;;;;1.10;0.35;;;;;;;25.53;45.75;94612.09;4963189;28;20046;-91
2022/06/10 10:48:31;;;;;;;2.85;0.50;;;;;;;26.16;45.02;94614.59;4979707;28;20073;-92
2022/06/10 10:51:01;;;;;;;3.83;0.73;;;;;;;25.41;48.45;94622.97;4979592;28;20104;-91
2022/06/10 10:53:33;;;;;;;5.00;0.70;;;;;;;26.86;45.91;94621.66;4963496;28;20070;-92
2022/06/10 10:56:00;;;;;;;0.57;0.30;;;;;;;27.14;44.33;94618.56;4964553;28;20137;-93
2022/06/10 10:58:50;;;;;;;0.60;0.38;;;;;;;26.85;44.48;94625.47;4998879;28;20352;-93
2022/06/10 11:01:44;;;;;;;1.02;0.40;;;;;;;24.53;46.18;94620.53;4991283;28;20439;-92
2022/06/10 11:04:16;;;;;;;3.53;0.50;;;;;;;26.96;41.20;94627.19;4983904;28;20440;-92
2022/06/10 11:06:41;;;;;;;2.42;0.50;;;;;;;26.65;42.97;94626.41;5000150;28;20087;-92
2022/06/10 11:09:24;;;;;;;0.98;0.60;;;;;;;27.13;43.48;94625.06;4982543;28;20416;-92
2022/06/10 11:11:50;;;;;;;1.23;0.30;;;;;;;25.47;42.64;94621.53;4982635;28;20037;-91
2022/06/10 11:14:31;;;;;;;1.23;0.30;;;;;;;25.91;44.57;94623.06;4998733;28;20073;-91
2022/06/10 11:17:11;;;;;;;2.35;0.20;;;;;;;25.31;42.04;94628.91;4982767;28;20038;-93
2022/06/10 11:19:37;;;;;;;0.50;0.30;;;;;;;24.87;45.06;94630.00;4998665;28;20034;-92
2022/06/10 11:22:02;;;;;;;2.75;0.40;;;;;;;25.93;46.21;94622.69;4999607;28;20116;-92
2022/06/10 11:24:42;;;;;;;1.30;0.40;;;;;;;25.98;47.15;94625.84;4999521;28;20440;-92
2022/06/10 11:27:19;;;;;;;0.50;0.30;;;;;;;25.74;42.93;94616.28;4999557;28;20084;-92
2022/06/10 11:30:18;;;;;;;1.10;0.50;;;;;;;24.96;43.95;94622.53;4999435;28;20061;-91
2022/06/10 11:32:49;;;;;;;1.33;0.40;;;;;;;24.96;48.95;94620.66;4993846;28;20451;-92
2022/06/10 11:35:23;;;;;;;2.33;0.50;;;;;;;24.77;48.86;94626.00;4998628;28;20432;-92
2022/06/10 11:38:04;;;;;;;0.40;0.20;;;;;;;22.31;51.00;94621.38;4998250;28;20041;-93
2022/06/10 11:40:47;;;;;;;0.35;0.20;;;;;;;24.37;43.79;94615.19;4979520;28;20034;-93
2022/06/10 11:43:22;;;;;;;0.57;0.25;;;;;;;24.82;47.92;94620.38;4998334;28;20428;-92
2022/06/10 11:45:58;;;;;;;0.52;0.40;;;;;;;25.53;42.42;94617.44;4982194;28;20440;-92
2022/06/10 11:48:40;;;;;;;0.20;0.20;;;;;;;25.27;46.10;94624.28;4997901;28;20444;-92
2022/06/10 11:51:49;;;;;;;0.45;0.30;;;;;;;23.43;49.20;94619.13;4997953;28;20026;-93
2022/06/10 11:54:42;;;;;;;0.55;0.22;;;;;;;24.92;47.48;94622.47;4926586;29;20142;-93
2022/06/10 12:00:03;;;;;;;6.13;0.30;;;;;;;23.46;51.12;94622.25;4997936;28;20078;-92
2022/06/10 12:02:37;;;;;;;0.38;0.20;;;;;;;25.10;48.16;94622.81;4998973;28;20026;-92
2022/06/10 12:05:09;;;;;;;2.47;0.20;;;;;;;25.12;52.10;94620.53;4997618;28;20329;-92
2022/06/10 12:07:38;;;;;;;1.98;0.35;;;;;;;23.48;51.32;94620.03;4998777;28;20344;-94
2022/06/10 12:10:06;;;;;;;2.60;0.20;;;;;;;23.96;48.39;94620.03;4997513;28;20026;-92